sensor_id;sensor_type;location;lat;lon;timestamp;temperature;humidity
53310;DHT22;39197;53.200;5.792;2024-03-06T00:01:33;5.40;99.90
53310;DHT22;39197;53.200;5.792;2024-03-06T00:03:59;5.50;99.90
53310;DHT22;39197;53.200;5.792;2024-03-06T00:06:25;5.40;99.90
53310;DHT22;39197;53.200;5.792;2024-03-06T00:08:51;5.40;99.90
53310;DHT22;39197;53.200;5.792;2024-03-06T00:11:16;5.40;99.90
53310;DHT22;39197;53.200;5.792;2024-03-06T00:13:42;5.40;99.90
53310;DHT22;39197;53.200;5.792;2024-03-06T00:16:08;5.30;99.90
53310;DHT22;39197;53.200;5.792;2024-03-06T00:18:34;5.30;99.90
53310;DHT22;39197;53.200;5.792;2024-03-06T00:21:00;5.20;99.90
53310;DHT22;39197;53.200;5.792;2024-03-06T00:23:25;5.30;99.90
53310;DHT22;39197;53.200;5.792;2024-03-06T00:25:52;5.20;99.90
53310;DHT22;39197;53.200;5.792;2024-03-06T00:28:17;5.30;99.90
53310;DHT22;39197;53.200;5.792;2024-03-06T00:30:43;5.30;99.90
53310;DHT22;39197;53.200;5.792;2024-03-06T00:33:08;5.20;99.90
53310;DHT22;39197;53.200;5.792;2024-03-06T00:35:34;5.20;99.90
53310;DHT22;39197;53.200;5.792;2024-03-06T00:37:59;5.20;99.90
53310;DHT22;39197;53.200;5.792;2024-03-06T00:40:28;5.20;99.90
53310;DHT22;39197;53.200;5.792;2024-03-06T00:42:57;5.20;99.90
53310;DHT22;39197;53.200;5.792;2024-03-06T00:45:23;5.20;99.90
53310;DHT22;39197;53.200;5.792;2024-03-06T00:47:49;5.20;99.90
53310;DHT22;39197;53.200;5.792;2024-03-06T00:50:15;5.10;99.90
53310;DHT22;39197;53.200;5.792;2024-03-06T00:52:42;5.20;99.90
53310;DHT22;39197;53.200;5.792;2024-03-06T00:55:09;5.10;99.90
53310;DHT22;39197;53.200;5.792;2024-03-06T00:57:35;5.10;99.90
53310;DHT22;39197;53.200;5.792;2024-03-06T01:00:01;5.10;99.90
53310;DHT22;39197;53.200;5.792;2024-03-06T01:02:31;5.10;99.90
53310;DHT22;39197;53.200;5.792;2024-03-06T01:04:56;5.10;99.90
53310;DHT22;39197;53.200;5.792;2024-03-06T01:07:22;5.10;99.90
53310;DHT22;39197;53.200;5.792;2024-03-06T01:09:48;5.20;99.90
53310;DHT22;39197;53.200;5.792;2024-03-06T01:12:13;5.10;99.90
53310;DHT22;39197;53.200;5.792;2024-03-06T01:14:39;5.10;99.90
53310;DHT22;39197;53.200;5.792;2024-03-06T01:17:04;5.10;99.90
53310;DHT22;39197;53.200;5.792;2024-03-06T01:19:30;5.10;99.90
53310;DHT22;39197;53.200;5.792;2024-03-06T01:21:56;5.10;99.90
53310;DHT22;39197;53.200;5.792;2024-03-06T01:24:22;5.10;99.90
53310;DHT22;39197;53.200;5.792;2024-03-06T01:26:47;5.10;99.90
53310;DHT22;39197;53.200;5.792;2024-03-06T01:29:13;5.00;99.90
53310;DHT22;39197;53.200;5.792;2024-03-06T01:31:39;5.00;99.90
53310;DHT22;39197;53.200;5.792;2024-03-06T01:34:04;5.00;99.90
53310;DHT22;39197;53.200;5.792;2024-03-06T01:36:30;5.00;99.90
53310;DHT22;39197;53.200;5.792;2024-03-06T01:38:55;5.10;99.90
53310;DHT22;39197;53.200;5.792;2024-03-06T01:41:21;5.10;99.90
53310;DHT22;39197;53.200;5.792;2024-03-06T01:43:47;5.00;99.90
53310;DHT22;39197;53.200;5.792;2024-03-06T01:46:12;5.10;99.90
53310;DHT22;39197;53.200;5.792;2024-03-06T01:48:38;5.00;99.90
53310;DHT22;39197;53.200;5.792;2024-03-06T01:51:05;5.00;99.90
53310;DHT22;39197;53.200;5.792;2024-03-06T01:53:32;5.00;99.90
53310;DHT22;39197;53.200;5.792;2024-03-06T01:55:59;5.00;99.90
53310;DHT22;39197;53.200;5.792;2024-03-06T01:58:25;4.90;99.90
53310;DHT22;39197;53.200;5.792;2024-03-06T02:00:51;4.90;99.90
53310;DHT22;39197;53.200;5.792;2024-03-06T02:03:20;4.90;99.90
53310;DHT22;39197;53.200;5.792;2024-03-06T02:05:48;4.90;99.90
53310;DHT22;39197;53.200;5.792;2024-03-06T02:08:14;4.90;99.90
53310;DHT22;39197;53.200;5.792;2024-03-06T02:10:40;4.90;99.90
53310;DHT22;39197;53.200;5.792;2024-03-06T02:13:06;4.90;99.90
53310;DHT22;39197;53.200;5.792;2024-03-06T02:15:32;5.50;99.90
53310;DHT22;39197;53.200;5.792;2024-03-06T02:17:58;4.90;99.90
53310;DHT22;39197;53.200;5.792;2024-03-06T02:20:24;5.30;99.90
53310;DHT22;39197;53.200;5.792;2024-03-06T02:22:50;4.80;99.90
53310;DHT22;39197;53.200;5.792;2024-03-06T02:25:16;4.90;99.90
53310;DHT22;39197;53.200;5.792;2024-03-06T02:27:43;5.00;99.90
53310;DHT22;39197;53.200;5.792;2024-03-06T02:30:09;4.90;99.90
53310;DHT22;39197;53.200;5.792;2024-03-06T02:32:35;4.80;99.90
53310;DHT22;39197;53.200;5.792;2024-03-06T02:35:01;4.80;99.90
53310;DHT22;39197;53.200;5.792;2024-03-06T02:37:34;5.40;99.90
53310;DHT22;39197;53.200;5.792;2024-03-06T02:39:59;4.90;99.90
53310;DHT22;39197;53.200;5.792;2024-03-06T02:42:27;4.90;99.90
53310;DHT22;39197;53.200;5.792;2024-03-06T02:44:53;4.80;99.90
53310;DHT22;39197;53.200;5.792;2024-03-06T02:47:19;4.80;99.90
53310;DHT22;39197;53.200;5.792;2024-03-06T02:49:45;4.80;99.90
53310;DHT22;39197;53.200;5.792;2024-03-06T02:52:10;4.80;99.90
53310;DHT22;39197;53.200;5.792;2024-03-06T02:54:36;4.80;99.90
53310;DHT22;39197;53.200;5.792;2024-03-06T02:57:01;4.80;99.90
53310;DHT22;39197;53.200;5.792;2024-03-06T02:59:27;4.80;99.90
53310;DHT22;39197;53.200;5.792;2024-03-06T03:01:53;4.80;99.90
53310;DHT22;39197;53.200;5.792;2024-03-06T03:04:18;4.80;99.90
53310;DHT22;39197;53.200;5.792;2024-03-06T03:06:44;5.00;99.90
53310;DHT22;39197;53.200;5.792;2024-03-06T03:09:10;4.90;99.90
53310;DHT22;39197;53.200;5.792;2024-03-06T03:11:37;4.90;99.90
53310;DHT22;39197;53.200;5.792;2024-03-06T03:14:03;4.90;99.90
53310;DHT22;39197;53.200;5.792;2024-03-06T03:16:29;4.80;99.90
53310;DHT22;39197;53.200;5.792;2024-03-06T03:18:55;4.90;99.90
53310;DHT22;39197;53.200;5.792;2024-03-06T03:21:22;4.90;99.90
53310;DHT22;39197;53.200;5.792;2024-03-06T03:23:48;4.90;99.90
53310;DHT22;39197;53.200;5.792;2024-03-06T03:26:15;4.80;99.90
53310;DHT22;39197;53.200;5.792;2024-03-06T03:28:41;4.90;99.90
53310;DHT22;39197;53.200;5.792;2024-03-06T03:31:10;4.80;99.90
53310;DHT22;39197;53.200;5.792;2024-03-06T03:33:44;4.80;99.90
53310;DHT22;39197;53.200;5.792;2024-03-06T03:36:10;4.70;99.90
53310;DHT22;39197;53.200;5.792;2024-03-06T03:38:37;4.70;99.90
53310;DHT22;39197;53.200;5.792;2024-03-06T03:41:09;4.40;99.90
53310;DHT22;39197;53.200;5.792;2024-03-06T03:43:35;5.00;99.90
53310;DHT22;39197;53.200;5.792;2024-03-06T03:46:01;5.50;99.90
53310;DHT22;39197;53.200;5.792;2024-03-06T03:48:27;6.00;99.90
53310;DHT22;39197;53.200;5.792;2024-03-06T03:50:52;5.70;99.90
53310;DHT22;39197;53.200;5.792;2024-03-06T03:53:18;5.00;99.90
53310;DHT22;39197;53.200;5.792;2024-03-06T03:55:44;4.90;99.90
53310;DHT22;39197;53.200;5.792;2024-03-06T03:58:10;4.70;99.90
53310;DHT22;39197;53.200;5.792;2024-03-06T04:00:35;4.70;99.90
53310;DHT22;39197;53.200;5.792;2024-03-06T04:03:01;4.90;99.90
53310;DHT22;39197;53.200;5.792;2024-03-06T04:05:27;4.70;99.90
53310;DHT22;39197;53.200;5.792;2024-03-06T04:07:53;4.70;99.90
53310;DHT22;39197;53.200;5.792;2024-03-06T04:10:19;4.70;99.90
53310;DHT22;39197;53.200;5.792;2024-03-06T04:12:45;4.90;99.90
53310;DHT22;39197;53.200;5.792;2024-03-06T04:15:10;4.70;99.90
53310;DHT22;39197;53.200;5.792;2024-03-06T04:17:36;4.70;99.90
53310;DHT22;39197;53.200;5.792;2024-03-06T04:20:02;4.70;99.90
53310;DHT22;39197;53.200;5.792;2024-03-06T04:22:29;4.70;99.90
53310;DHT22;39197;53.200;5.792;2024-03-06T04:24:55;4.70;99.90
53310;DHT22;39197;53.200;5.792;2024-03-06T04:27:22;4.70;99.90
53310;DHT22;39197;53.200;5.792;2024-03-06T04:29:47;4.70;99.90
53310;DHT22;39197;53.200;5.792;2024-03-06T04:32:13;4.80;99.90
53310;DHT22;39197;53.200;5.792;2024-03-06T04:34:39;4.70;99.90
53310;DHT22;39197;53.200;5.792;2024-03-06T04:37:04;4.60;99.90
53310;DHT22;39197;53.200;5.792;2024-03-06T04:39:30;4.60;99.90
53310;DHT22;39197;53.200;5.792;2024-03-06T04:41:57;4.60;99.90
53310;DHT22;39197;53.200;5.792;2024-03-06T04:44:23;5.00;99.90
53310;DHT22;39197;53.200;5.792;2024-03-06T04:46:51;5.40;99.90
53310;DHT22;39197;53.200;5.792;2024-03-06T04:49:17;4.70;99.90
53310;DHT22;39197;53.200;5.792;2024-03-06T04:51:43;5.30;99.90
53310;DHT22;39197;53.200;5.792;2024-03-06T04:54:08;4.60;99.90
53310;DHT22;39197;53.200;5.792;2024-03-06T04:56:34;4.60;99.90
53310;DHT22;39197;53.200;5.792;2024-03-06T04:59:00;4.60;99.90
53310;DHT22;39197;53.200;5.792;2024-03-06T05:01:29;4.60;99.90
53310;DHT22;39197;53.200;5.792;2024-03-06T05:03:55;4.90;99.90
53310;DHT22;39197;53.200;5.792;2024-03-06T05:06:22;5.00;99.90
53310;DHT22;39197;53.200;5.792;2024-03-06T05:08:49;4.80;99.90
53310;DHT22;39197;53.200;5.792;2024-03-06T05:11:14;5.10;99.90
53310;DHT22;39197;53.200;5.792;2024-03-06T05:13:40;5.00;99.90
53310;DHT22;39197;53.200;5.792;2024-03-06T05:16:06;4.70;99.90
53310;DHT22;39197;53.200;5.792;2024-03-06T05:18:34;4.60;99.90
53310;DHT22;39197;53.200;5.792;2024-03-06T05:21:00;4.60;99.90
53310;DHT22;39197;53.200;5.792;2024-03-06T05:23:26;4.60;99.90
53310;DHT22;39197;53.200;5.792;2024-03-06T05:25:52;4.50;99.90
53310;DHT22;39197;53.200;5.792;2024-03-06T05:28:20;4.80;99.90
53310;DHT22;39197;53.200;5.792;2024-03-06T05:30:46;4.50;99.90
53310;DHT22;39197;53.200;5.792;2024-03-06T05:33:11;5.60;99.90
53310;DHT22;39197;53.200;5.792;2024-03-06T05:35:37;4.50;99.90
53310;DHT22;39197;53.200;5.792;2024-03-06T05:38:03;4.50;99.90
53310;DHT22;39197;53.200;5.792;2024-03-06T05:40:28;4.60;99.90
53310;DHT22;39197;53.200;5.792;2024-03-06T05:42:56;4.20;99.90
53310;DHT22;39197;53.200;5.792;2024-03-06T05:45:21;4.50;99.90
53310;DHT22;39197;53.200;5.792;2024-03-06T05:47:47;4.60;99.90
53310;DHT22;39197;53.200;5.792;2024-03-06T05:50:13;5.10;99.90
53310;DHT22;39197;53.200;5.792;2024-03-06T05:52:39;4.60;99.90
53310;DHT22;39197;53.200;5.792;2024-03-06T05:55:05;5.40;99.90
53310;DHT22;39197;53.200;5.792;2024-03-06T05:57:32;4.50;99.90
53310;DHT22;39197;53.200;5.792;2024-03-06T05:59:57;4.50;99.90
53310;DHT22;39197;53.200;5.792;2024-03-06T06:02:23;4.60;99.90
53310;DHT22;39197;53.200;5.792;2024-03-06T06:04:49;4.50;99.90
53310;DHT22;39197;53.200;5.792;2024-03-06T06:07:14;4.50;99.90
53310;DHT22;39197;53.200;5.792;2024-03-06T06:09:41;4.40;99.90
53310;DHT22;39197;53.200;5.792;2024-03-06T06:12:07;5.20;99.90
53310;DHT22;39197;53.200;5.792;2024-03-06T06:14:32;4.60;99.90
53310;DHT22;39197;53.200;5.792;2024-03-06T06:16:58;4.60;99.90
53310;DHT22;39197;53.200;5.792;2024-03-06T06:19:24;4.70;99.90
53310;DHT22;39197;53.200;5.792;2024-03-06T06:21:53;4.60;99.90
53310;DHT22;39197;53.200;5.792;2024-03-06T06:24:19;4.60;99.90
53310;DHT22;39197;53.200;5.792;2024-03-06T06:26:45;5.00;99.90
53310;DHT22;39197;53.200;5.792;2024-03-06T06:29:10;4.60;99.90
53310;DHT22;39197;53.200;5.792;2024-03-06T06:31:36;4.60;99.90
53310;DHT22;39197;53.200;5.792;2024-03-06T06:34:02;4.50;99.90
53310;DHT22;39197;53.200;5.792;2024-03-06T06:36:27;5.60;99.90
53310;DHT22;39197;53.200;5.792;2024-03-06T06:38:53;4.50;99.90
53310;DHT22;39197;53.200;5.792;2024-03-06T06:41:19;4.50;99.90
53310;DHT22;39197;53.200;5.792;2024-03-06T06:43:45;4.60;99.90
53310;DHT22;39197;53.200;5.792;2024-03-06T06:46:11;4.50;99.90
53310;DHT22;39197;53.200;5.792;2024-03-06T06:48:36;4.60;99.90
53310;DHT22;39197;53.200;5.792;2024-03-06T06:51:02;4.70;99.90
53310;DHT22;39197;53.200;5.792;2024-03-06T06:53:31;4.70;99.90
53310;DHT22;39197;53.200;5.792;2024-03-06T06:55:57;4.60;99.90
53310;DHT22;39197;53.200;5.792;2024-03-06T06:58:23;4.60;99.90
53310;DHT22;39197;53.200;5.792;2024-03-06T07:00:49;4.70;99.90
53310;DHT22;39197;53.200;5.792;2024-03-06T07:03:16;5.40;99.90
53310;DHT22;39197;53.200;5.792;2024-03-06T07:05:41;5.10;99.90
53310;DHT22;39197;53.200;5.792;2024-03-06T07:08:07;4.60;99.90
53310;DHT22;39197;53.200;5.792;2024-03-06T07:10:33;4.70;99.90
53310;DHT22;39197;53.200;5.792;2024-03-06T07:13:01;4.70;99.90
53310;DHT22;39197;53.200;5.792;2024-03-06T07:15:28;5.00;99.90
53310;DHT22;39197;53.200;5.792;2024-03-06T07:17:54;4.70;99.90
53310;DHT22;39197;53.200;5.792;2024-03-06T07:20:20;4.80;99.90
53310;DHT22;39197;53.200;5.792;2024-03-06T07:22:45;4.70;99.90
53310;DHT22;39197;53.200;5.792;2024-03-06T07:25:11;4.80;99.90
53310;DHT22;39197;53.200;5.792;2024-03-06T07:27:37;4.60;99.90
53310;DHT22;39197;53.200;5.792;2024-03-06T07:30:03;4.70;99.90
53310;DHT22;39197;53.200;5.792;2024-03-06T07:32:28;4.70;99.90
53310;DHT22;39197;53.200;5.792;2024-03-06T07:34:54;4.80;99.90
53310;DHT22;39197;53.200;5.792;2024-03-06T07:37:20;4.70;99.90
53310;DHT22;39197;53.200;5.792;2024-03-06T07:39:46;4.70;99.90
53310;DHT22;39197;53.200;5.792;2024-03-06T07:42:12;4.80;99.90
53310;DHT22;39197;53.200;5.792;2024-03-06T07:44:38;4.70;99.90
53310;DHT22;39197;53.200;5.792;2024-03-06T07:47:04;4.80;99.90
53310;DHT22;39197;53.200;5.792;2024-03-06T07:49:29;4.80;99.90
53310;DHT22;39197;53.200;5.792;2024-03-06T07:51:57;4.80;99.90
53310;DHT22;39197;53.200;5.792;2024-03-06T07:54:23;5.50;99.90
53310;DHT22;39197;53.200;5.792;2024-03-06T07:56:49;4.70;99.90
53310;DHT22;39197;53.200;5.792;2024-03-06T07:59:14;4.70;99.90
53310;DHT22;39197;53.200;5.792;2024-03-06T08:01:42;4.70;99.90
53310;DHT22;39197;53.200;5.792;2024-03-06T08:04:07;4.70;99.90
53310;DHT22;39197;53.200;5.792;2024-03-06T08:06:33;4.60;99.90
53310;DHT22;39197;53.200;5.792;2024-03-06T08:09:01;4.80;99.90
53310;DHT22;39197;53.200;5.792;2024-03-06T08:11:27;4.80;99.90
53310;DHT22;39197;53.200;5.792;2024-03-06T08:14:00;4.80;99.90
53310;DHT22;39197;53.200;5.792;2024-03-06T08:16:26;5.30;99.90
53310;DHT22;39197;53.200;5.792;2024-03-06T08:18:53;5.30;99.90
53310;DHT22;39197;53.200;5.792;2024-03-06T08:21:18;4.60;99.90
53310;DHT22;39197;53.200;5.792;2024-03-06T08:26:39;4.80;99.90
53310;DHT22;39197;53.200;5.792;2024-03-06T08:29:04;4.80;99.90
53310;DHT22;39197;53.200;5.792;2024-03-06T08:31:30;4.80;99.90
53310;DHT22;39197;53.200;5.792;2024-03-06T08:33:56;4.80;99.90
53310;DHT22;39197;53.200;5.792;2024-03-06T08:36:22;4.80;99.90
53310;DHT22;39197;53.200;5.792;2024-03-06T08:38:48;4.80;99.90
53310;DHT22;39197;53.200;5.792;2024-03-06T08:41:14;4.80;99.90
53310;DHT22;39197;53.200;5.792;2024-03-06T08:43:40;5.40;99.90
53310;DHT22;39197;53.200;5.792;2024-03-06T08:46:07;4.80;99.90
53310;DHT22;39197;53.200;5.792;2024-03-06T08:48:33;4.80;99.90
53310;DHT22;39197;53.200;5.792;2024-03-06T08:51:01;4.40;99.90
53310;DHT22;39197;53.200;5.792;2024-03-06T08:53:29;4.90;99.90
53310;DHT22;39197;53.200;5.792;2024-03-06T08:55:55;4.80;99.90
53310;DHT22;39197;53.200;5.792;2024-03-06T08:58:21;5.20;99.90
53310;DHT22;39197;53.200;5.792;2024-03-06T09:00:47;5.30;99.90
53310;DHT22;39197;53.200;5.792;2024-03-06T09:03:14;4.80;99.90
53310;DHT22;39197;53.200;5.792;2024-03-06T09:05:41;4.90;99.90
53310;DHT22;39197;53.200;5.792;2024-03-06T09:08:07;4.60;99.90
53310;DHT22;39197;53.200;5.792;2024-03-06T09:10:34;4.90;99.90
53310;DHT22;39197;53.200;5.792;2024-03-06T09:13:00;4.80;99.90
53310;DHT22;39197;53.200;5.792;2024-03-06T09:15:26;5.00;99.90
53310;DHT22;39197;53.200;5.792;2024-03-06T09:17:52;5.00;99.90
53310;DHT22;39197;53.200;5.792;2024-03-06T09:20:17;5.00;99.90
53310;DHT22;39197;53.200;5.792;2024-03-06T09:22:43;5.10;99.90
53310;DHT22;39197;53.200;5.792;2024-03-06T09:25:10;5.10;99.90
53310;DHT22;39197;53.200;5.792;2024-03-06T09:27:37;5.10;99.90
53310;DHT22;39197;53.200;5.792;2024-03-06T09:30:03;5.10;99.90
53310;DHT22;39197;53.200;5.792;2024-03-06T09:32:29;5.10;99.90
53310;DHT22;39197;53.200;5.792;2024-03-06T09:34:55;5.10;99.90
53310;DHT22;39197;53.200;5.792;2024-03-06T09:37:21;5.20;99.90
53310;DHT22;39197;53.200;5.792;2024-03-06T09:39:47;5.30;99.90
53310;DHT22;39197;53.200;5.792;2024-03-06T09:42:14;5.10;99.90
53310;DHT22;39197;53.200;5.792;2024-03-06T09:44:40;5.20;99.90
53310;DHT22;39197;53.200;5.792;2024-03-06T09:47:06;5.20;99.90
53310;DHT22;39197;53.200;5.792;2024-03-06T09:49:33;5.30;99.90
53310;DHT22;39197;53.200;5.792;2024-03-06T09:52:00;5.40;99.90
53310;DHT22;39197;53.200;5.792;2024-03-06T09:54:27;5.50;99.90
53310;DHT22;39197;53.200;5.792;2024-03-06T09:56:53;5.30;99.90
53310;DHT22;39197;53.200;5.792;2024-03-06T09:59:21;5.40;99.90
53310;DHT22;39197;53.200;5.792;2024-03-06T10:04:25;5.30;99.90
53310;DHT22;39197;53.200;5.792;2024-03-06T10:06:54;5.30;99.90
53310;DHT22;39197;53.200;5.792;2024-03-06T10:09:23;5.40;99.90
53310;DHT22;39197;53.200;5.792;2024-03-06T10:11:50;5.30;99.90
53310;DHT22;39197;53.200;5.792;2024-03-06T10:14:18;5.30;99.90
53310;DHT22;39197;53.200;5.792;2024-03-06T10:16:55;5.30;99.90
53310;DHT22;39197;53.200;5.792;2024-03-06T10:19:28;5.20;99.90
53310;DHT22;39197;53.200;5.792;2024-03-06T10:21:55;5.30;99.90
53310;DHT22;39197;53.200;5.792;2024-03-06T10:24:26;5.20;99.90
53310;DHT22;39197;53.200;5.792;2024-03-06T10:26:55;5.30;99.90
53310;DHT22;39197;53.200;5.792;2024-03-06T10:29:23;5.60;99.90
53310;DHT22;39197;53.200;5.792;2024-03-06T10:31:55;5.40;99.90
53310;DHT22;39197;53.200;5.792;2024-03-06T10:34:23;6.50;99.90
53310;DHT22;39197;53.200;5.792;2024-03-06T10:37:00;5.30;99.90
53310;DHT22;39197;53.200;5.792;2024-03-06T10:39:27;5.60;99.90
53310;DHT22;39197;53.200;5.792;2024-03-06T10:41:56;5.40;99.90
53310;DHT22;39197;53.200;5.792;2024-03-06T10:44:26;5.50;99.90
53310;DHT22;39197;53.200;5.792;2024-03-06T10:46:58;5.40;99.90
53310;DHT22;39197;53.200;5.792;2024-03-06T10:49:26;5.50;99.90
53310;DHT22;39197;53.200;5.792;2024-03-06T10:51:56;5.70;99.90
53310;DHT22;39197;53.200;5.792;2024-03-06T10:54:23;5.40;99.90
53310;DHT22;39197;53.200;5.792;2024-03-06T10:56:52;5.90;99.90
53310;DHT22;39197;53.200;5.792;2024-03-06T10:59:20;5.60;99.90
53310;DHT22;39197;53.200;5.792;2024-03-06T11:01:47;5.70;99.90
53310;DHT22;39197;53.200;5.792;2024-03-06T11:04:13;6.00;99.90
53310;DHT22;39197;53.200;5.792;2024-03-06T11:06:40;5.60;99.90
53310;DHT22;39197;53.200;5.792;2024-03-06T11:09:07;5.80;99.90
53310;DHT22;39197;53.200;5.792;2024-03-06T11:11:50;6.40;99.90
53310;DHT22;39197;53.200;5.792;2024-03-06T11:14:18;5.60;99.90
53310;DHT22;39197;53.200;5.792;2024-03-06T11:17:08;5.40;99.90
53310;DHT22;39197;53.200;5.792;2024-03-06T11:28:24;5.90;99.90
53310;DHT22;39197;53.200;5.792;2024-03-06T11:30:59;5.90;99.90
53310;DHT22;39197;53.200;5.792;2024-03-06T11:33:41;6.00;99.90
53310;DHT22;39197;53.200;5.792;2024-03-06T11:38:55;6.00;99.90
53310;DHT22;39197;53.200;5.792;2024-03-06T11:41:22;6.00;99.90
53310;DHT22;39197;53.200;5.792;2024-03-06T11:43:49;6.10;99.90
53310;DHT22;39197;53.200;5.792;2024-03-06T11:46:19;6.10;99.90
53310;DHT22;39197;53.200;5.792;2024-03-06T11:48:56;6.00;99.90
53310;DHT22;39197;53.200;5.792;2024-03-06T11:51:24;6.20;99.90
53310;DHT22;39197;53.200;5.792;2024-03-06T11:53:52;6.20;99.90
53310;DHT22;39197;53.200;5.792;2024-03-06T11:56:20;6.30;99.90
53310;DHT22;39197;53.200;5.792;2024-03-06T11:58:46;6.30;99.90
53310;DHT22;39197;53.200;5.792;2024-03-06T12:01:13;6.40;99.90
53310;DHT22;39197;53.200;5.792;2024-03-06T12:03:39;6.40;99.90
53310;DHT22;39197;53.200;5.792;2024-03-06T12:06:06;6.30;99.90
53310;DHT22;39197;53.200;5.792;2024-03-06T12:08:33;6.40;99.90
53310;DHT22;39197;53.200;5.792;2024-03-06T12:11:02;6.40;99.90
53310;DHT22;39197;53.200;5.792;2024-03-06T12:13:29;6.50;99.90
53310;DHT22;39197;53.200;5.792;2024-03-06T12:15:55;6.40;99.90
53310;DHT22;39197;53.200;5.792;2024-03-06T12:18:20;6.40;99.90
53310;DHT22;39197;53.200;5.792;2024-03-06T12:20:50;6.50;99.90
53310;DHT22;39197;53.200;5.792;2024-03-06T12:23:33;6.50;99.90
53310;DHT22;39197;53.200;5.792;2024-03-06T12:26:09;6.60;99.90
53310;DHT22;39197;53.200;5.792;2024-03-06T12:28:37;6.60;99.90
53310;DHT22;39197;53.200;5.792;2024-03-06T12:31:03;6.70;99.90
53310;DHT22;39197;53.200;5.792;2024-03-06T12:33:30;6.70;99.90
53310;DHT22;39197;53.200;5.792;2024-03-06T12:36:03;6.60;99.90
53310;DHT22;39197;53.200;5.792;2024-03-06T12:38:29;6.60;99.90
53310;DHT22;39197;53.200;5.792;2024-03-06T12:40:55;6.60;99.90
53310;DHT22;39197;53.200;5.792;2024-03-06T12:43:20;6.50;99.90
53310;DHT22;39197;53.200;5.792;2024-03-06T12:45:46;6.60;99.90
53310;DHT22;39197;53.200;5.792;2024-03-06T12:48:12;6.60;99.90
53310;DHT22;39197;53.200;5.792;2024-03-06T12:50:38;6.60;99.90
53310;DHT22;39197;53.200;5.792;2024-03-06T12:53:03;6.80;99.90
53310;DHT22;39197;53.200;5.792;2024-03-06T12:55:31;6.80;99.90
53310;DHT22;39197;53.200;5.792;2024-03-06T12:57:59;6.90;99.90
53310;DHT22;39197;53.200;5.792;2024-03-06T13:00:24;6.90;99.90
53310;DHT22;39197;53.200;5.792;2024-03-06T13:02:50;6.90;99.90
53310;DHT22;39197;53.200;5.792;2024-03-06T13:05:16;6.90;99.90
53310;DHT22;39197;53.200;5.792;2024-03-06T13:07:43;7.00;99.90
53310;DHT22;39197;53.200;5.792;2024-03-06T13:10:10;7.10;99.90
53310;DHT22;39197;53.200;5.792;2024-03-06T13:12:37;7.20;99.90
53310;DHT22;39197;53.200;5.792;2024-03-06T13:15:02;7.20;99.90
53310;DHT22;39197;53.200;5.792;2024-03-06T13:17:29;7.10;99.90
53310;DHT22;39197;53.200;5.792;2024-03-06T13:19:55;7.20;99.90
53310;DHT22;39197;53.200;5.792;2024-03-06T13:22:22;7.30;99.90
53310;DHT22;39197;53.200;5.792;2024-03-06T13:24:48;7.30;99.90
53310;DHT22;39197;53.200;5.792;2024-03-06T13:27:14;7.30;99.90
53310;DHT22;39197;53.200;5.792;2024-03-06T13:29:39;7.30;99.90
53310;DHT22;39197;53.200;5.792;2024-03-06T13:32:07;7.40;99.90
53310;DHT22;39197;53.200;5.792;2024-03-06T13:34:32;7.40;99.90
53310;DHT22;39197;53.200;5.792;2024-03-06T13:36:59;7.50;99.90
53310;DHT22;39197;53.200;5.792;2024-03-06T13:39:24;7.60;99.90
53310;DHT22;39197;53.200;5.792;2024-03-06T13:41:50;7.70;99.90
53310;DHT22;39197;53.200;5.792;2024-03-06T13:44:18;7.70;99.90
53310;DHT22;39197;53.200;5.792;2024-03-06T13:46:43;7.70;99.90
53310;DHT22;39197;53.200;5.792;2024-03-06T13:49:39;7.80;99.90
53310;DHT22;39197;53.200;5.792;2024-03-06T13:52:06;7.80;99.90
53310;DHT22;39197;53.200;5.792;2024-03-06T13:54:33;7.70;99.90
53310;DHT22;39197;53.200;5.792;2024-03-06T13:56:59;7.50;99.90
53310;DHT22;39197;53.200;5.792;2024-03-06T13:59:34;7.60;99.90
53310;DHT22;39197;53.200;5.792;2024-03-06T14:02:00;7.70;99.90
53310;DHT22;39197;53.200;5.792;2024-03-06T14:04:26;7.70;99.90
53310;DHT22;39197;53.200;5.792;2024-03-06T14:06:52;7.70;99.90
53310;DHT22;39197;53.200;5.792;2024-03-06T14:09:18;7.80;99.90
53310;DHT22;39197;53.200;5.792;2024-03-06T14:11:44;7.70;99.90
53310;DHT22;39197;53.200;5.792;2024-03-06T14:14:10;7.70;99.90
53310;DHT22;39197;53.200;5.792;2024-03-06T14:16:38;7.70;99.90
53310;DHT22;39197;53.200;5.792;2024-03-06T14:19:05;7.70;99.90
53310;DHT22;39197;53.200;5.792;2024-03-06T14:21:31;7.90;99.90
53310;DHT22;39197;53.200;5.792;2024-03-06T14:24:00;7.90;99.90
53310;DHT22;39197;53.200;5.792;2024-03-06T14:26:29;7.90;99.90
53310;DHT22;39197;53.200;5.792;2024-03-06T14:28:55;8.00;99.90
53310;DHT22;39197;53.200;5.792;2024-03-06T14:31:20;7.90;99.90
53310;DHT22;39197;53.200;5.792;2024-03-06T14:33:46;7.90;99.90
53310;DHT22;39197;53.200;5.792;2024-03-06T14:36:14;7.90;99.90
53310;DHT22;39197;53.200;5.792;2024-03-06T14:38:40;7.80;99.90
53310;DHT22;39197;53.200;5.792;2024-03-06T14:41:09;7.90;99.90
53310;DHT22;39197;53.200;5.792;2024-03-06T14:43:35;8.00;99.90
53310;DHT22;39197;53.200;5.792;2024-03-06T14:46:04;8.00;99.90
53310;DHT22;39197;53.200;5.792;2024-03-06T14:48:29;8.00;99.90
53310;DHT22;39197;53.200;5.792;2024-03-06T14:50:55;7.90;99.90
53310;DHT22;39197;53.200;5.792;2024-03-06T14:53:22;8.00;99.90
53310;DHT22;39197;53.200;5.792;2024-03-06T14:55:47;8.10;99.90
53310;DHT22;39197;53.200;5.792;2024-03-06T14:58:13;8.10;99.90
53310;DHT22;39197;53.200;5.792;2024-03-06T15:00:39;8.20;99.90
53310;DHT22;39197;53.200;5.792;2024-03-06T15:03:04;8.20;99.90
53310;DHT22;39197;53.200;5.792;2024-03-06T15:05:33;8.20;99.90
53310;DHT22;39197;53.200;5.792;2024-03-06T15:07:59;8.30;99.90
53310;DHT22;39197;53.200;5.792;2024-03-06T15:10:25;8.30;99.90
53310;DHT22;39197;53.200;5.792;2024-03-06T15:12:51;8.40;99.90
53310;DHT22;39197;53.200;5.792;2024-03-06T15:15:16;8.50;99.90
53310;DHT22;39197;53.200;5.792;2024-03-06T15:17:42;8.50;99.90
53310;DHT22;39197;53.200;5.792;2024-03-06T15:20:08;8.50;99.90
53310;DHT22;39197;53.200;5.792;2024-03-06T15:22:35;8.60;99.90
53310;DHT22;39197;53.200;5.792;2024-03-06T15:25:10;8.60;99.90
53310;DHT22;39197;53.200;5.792;2024-03-06T15:27:37;8.60;99.90
53310;DHT22;39197;53.200;5.792;2024-03-06T15:30:05;8.70;99.90
53310;DHT22;39197;53.200;5.792;2024-03-06T15:32:33;8.80;99.90
53310;DHT22;39197;53.200;5.792;2024-03-06T15:34:58;8.70;99.90
53310;DHT22;39197;53.200;5.792;2024-03-06T15:37:25;8.80;99.90
53310;DHT22;39197;53.200;5.792;2024-03-06T15:39:54;8.70;99.90
53310;DHT22;39197;53.200;5.792;2024-03-06T15:42:20;8.80;99.90
53310;DHT22;39197;53.200;5.792;2024-03-06T15:44:52;8.90;99.90
53310;DHT22;39197;53.200;5.792;2024-03-06T15:47:19;8.90;99.90
53310;DHT22;39197;53.200;5.792;2024-03-06T15:49:45;8.80;99.90
53310;DHT22;39197;53.200;5.792;2024-03-06T15:52:11;9.00;99.90
53310;DHT22;39197;53.200;5.792;2024-03-06T15:54:37;9.20;99.90
53310;DHT22;39197;53.200;5.792;2024-03-06T15:57:06;9.20;99.90
53310;DHT22;39197;53.200;5.792;2024-03-06T15:59:36;9.50;99.90